Volcanoville, California
Current Conditions -  °F | °C
As of 2:55 PM on Thursday 23 Oct 2014 (Local Time) from KPVF Reporting Station
Clear Clear  
Wind Chill: 66°   Ceiling: Unl
Heat Index: 66°   Visibility: 10mi
Dew Point: 43°   Wind: 5mph
Humidity: 43%   Direction: 220°SW
Pressure: 30.08"   Gusts: NA
Location:  38.9159°N, 120.725°W
Report Text: KPVF 232155Z AUTO 22004KT 10SM CLR 19/06 A3008 RMK AO1
Loading
Personal Weather Stations






























Interactive Weather Map
Tropical Storm Tracking
New forecast layout! Learn more

10-Day Weather Forecast

Advertisements
Track Severe Weather on mobile